sensor_id;sensor_type;location;lat;lon;timestamp;temperature;humidity
3690;DHT22;1861;50.240;8.596;2023-03-26T00:01:28;11.20;99.90
3690;DHT22;1861;50.240;8.596;2023-03-26T00:03:59;11.20;99.90
3690;DHT22;1861;50.240;8.596;2023-03-26T00:06:29;11.20;99.90
3690;DHT22;1861;50.240;8.596;2023-03-26T00:08:57;11.10;99.90
3690;DHT22;1861;50.240;8.596;2023-03-26T00:11:27;11.10;99.90
3690;DHT22;1861;50.240;8.596;2023-03-26T00:13:56;11.10;99.90
3690;DHT22;1861;50.240;8.596;2023-03-26T00:16:27;11.20;99.90
3690;DHT22;1861;50.240;8.596;2023-03-26T00:18:56;11.20;99.90
3690;DHT22;1861;50.240;8.596;2023-03-26T00:21:26;11.20;99.90
3690;DHT22;1861;50.240;8.596;2023-03-26T00:23:56;11.10;99.90
3690;DHT22;1861;50.240;8.596;2023-03-26T00:26:25;11.10;99.90
3690;DHT22;1861;50.240;8.596;2023-03-26T00:28:55;11.10;99.90
3690;DHT22;1861;50.240;8.596;2023-03-26T00:31:23;11.00;99.90
3690;DHT22;1861;50.240;8.596;2023-03-26T00:33:53;11.10;99.90
3690;DHT22;1861;50.240;8.596;2023-03-26T00:36:23;11.10;99.90
3690;DHT22;1861;50.240;8.596;2023-03-26T00:38:53;11.00;99.90
3690;DHT22;1861;50.240;8.596;2023-03-26T00:41:23;11.00;99.90
3690;DHT22;1861;50.240;8.596;2023-03-26T00:43:54;11.00;99.90
3690;DHT22;1861;50.240;8.596;2023-03-26T00:46:23;11.00;99.90
3690;DHT22;1861;50.240;8.596;2023-03-26T00:48:54;11.10;99.90
3690;DHT22;1861;50.240;8.596;2023-03-26T00:51:25;11.00;99.90
3690;DHT22;1861;50.240;8.596;2023-03-26T00:53:53;11.00;99.90
3690;DHT22;1861;50.240;8.596;2023-03-26T00:56:22;11.00;99.90
3690;DHT22;1861;50.240;8.596;2023-03-26T00:58:50;11.00;99.90
3690;DHT22;1861;50.240;8.596;2023-03-26T01:01:22;11.00;99.90
3690;DHT22;1861;50.240;8.596;2023-03-26T01:03:56;11.00;99.90
3690;DHT22;1861;50.240;8.596;2023-03-26T01:06:37;11.00;99.90
3690;DHT22;1861;50.240;8.596;2023-03-26T01:09:13;11.00;99.90
3690;DHT22;1861;50.240;8.596;2023-03-26T01:11:42;11.00;99.90
3690;DHT22;1861;50.240;8.596;2023-03-26T01:14:13;11.00;99.90
3690;DHT22;1861;50.240;8.596;2023-03-26T01:16:46;11.00;99.90
3690;DHT22;1861;50.240;8.596;2023-03-26T01:19:24;11.00;99.90
3690;DHT22;1861;50.240;8.596;2023-03-26T01:21:55;10.90;99.90
3690;DHT22;1861;50.240;8.596;2023-03-26T01:24:26;11.00;99.90
3690;DHT22;1861;50.240;8.596;2023-03-26T01:27:15;11.00;99.90
3690;DHT22;1861;50.240;8.596;2023-03-26T01:29:52;11.00;99.90
3690;DHT22;1861;50.240;8.596;2023-03-26T01:32:28;11.00;99.90
3690;DHT22;1861;50.240;8.596;2023-03-26T01:35:14;10.90;99.90
3690;DHT22;1861;50.240;8.596;2023-03-26T01:37:51;10.90;99.90
3690;DHT22;1861;50.240;8.596;2023-03-26T01:40:28;10.90;99.90
3690;DHT22;1861;50.240;8.596;2023-03-26T01:43:09;10.90;99.90
3690;DHT22;1861;50.240;8.596;2023-03-26T01:45:41;10.90;99.90
3690;DHT22;1861;50.240;8.596;2023-03-26T01:48:12;10.90;99.90
3690;DHT22;1861;50.240;8.596;2023-03-26T01:50:40;10.90;99.90
3690;DHT22;1861;50.240;8.596;2023-03-26T01:53:10;10.90;99.90
3690;DHT22;1861;50.240;8.596;2023-03-26T01:55:49;10.90;99.90
3690;DHT22;1861;50.240;8.596;2023-03-26T01:58:26;10.90;99.90
3690;DHT22;1861;50.240;8.596;2023-03-26T02:01:02;10.90;99.90
3690;DHT22;1861;50.240;8.596;2023-03-26T02:03:36;10.90;99.90
3690;DHT22;1861;50.240;8.596;2023-03-26T02:06:09;10.90;99.90
3690;DHT22;1861;50.240;8.596;2023-03-26T02:08:45;10.90;99.90
3690;DHT22;1861;50.240;8.596;2023-03-26T02:11:18;10.90;99.90
3690;DHT22;1861;50.240;8.596;2023-03-26T02:13:50;10.90;99.90
3690;DHT22;1861;50.240;8.596;2023-03-26T02:16:19;10.90;99.90
3690;DHT22;1861;50.240;8.596;2023-03-26T02:18:48;10.90;99.90
3690;DHT22;1861;50.240;8.596;2023-03-26T02:21:22;10.90;99.90
3690;DHT22;1861;50.240;8.596;2023-03-26T02:23:53;10.90;99.90
3690;DHT22;1861;50.240;8.596;2023-03-26T02:26:25;10.90;99.90
3690;DHT22;1861;50.240;8.596;2023-03-26T02:28:59;10.90;99.90
3690;DHT22;1861;50.240;8.596;2023-03-26T02:31:28;10.90;99.90
3690;DHT22;1861;50.240;8.596;2023-03-26T02:33:56;10.90;99.90
3690;DHT22;1861;50.240;8.596;2023-03-26T02:36:26;10.90;99.90
3690;DHT22;1861;50.240;8.596;2023-03-26T02:38:58;10.80;99.90
3690;DHT22;1861;50.240;8.596;2023-03-26T02:41:31;10.80;99.90
3690;DHT22;1861;50.240;8.596;2023-03-26T02:44:04;10.80;99.90
3690;DHT22;1861;50.240;8.596;2023-03-26T02:47:07;10.80;99.90
3690;DHT22;1861;50.240;8.596;2023-03-26T02:49:50;10.80;99.90
3690;DHT22;1861;50.240;8.596;2023-03-26T02:52:45;10.80;99.90
3690;DHT22;1861;50.240;8.596;2023-03-26T02:55:15;10.80;99.90
3690;DHT22;1861;50.240;8.596;2023-03-26T02:57:45;10.60;99.90
3690;DHT22;1861;50.240;8.596;2023-03-26T03:00:16;10.70;99.90
3690;DHT22;1861;50.240;8.596;2023-03-26T03:02:53;10.70;99.90
3690;DHT22;1861;50.240;8.596;2023-03-26T03:05:30;10.70;99.90
3690;DHT22;1861;50.240;8.596;2023-03-26T03:08:17;10.70;99.90
3690;DHT22;1861;50.240;8.596;2023-03-26T03:11:19;10.60;99.90
3690;DHT22;1861;50.240;8.596;2023-03-26T03:13:52;10.70;99.90
3690;DHT22;1861;50.240;8.596;2023-03-26T03:16:23;10.70;99.90
3690;DHT22;1861;50.240;8.596;2023-03-26T03:18:51;10.70;99.90
3690;DHT22;1861;50.240;8.596;2023-03-26T03:21:27;10.70;99.90
3690;DHT22;1861;50.240;8.596;2023-03-26T03:23:56;10.70;99.90
3690;DHT22;1861;50.240;8.596;2023-03-26T03:26:27;10.70;99.90
3690;DHT22;1861;50.240;8.596;2023-03-26T03:29:02;10.70;99.90
3690;DHT22;1861;50.240;8.596;2023-03-26T03:31:31;10.60;99.90
3690;DHT22;1861;50.240;8.596;2023-03-26T03:34:03;10.60;99.90
3690;DHT22;1861;50.240;8.596;2023-03-26T03:36:35;10.60;99.90
3690;DHT22;1861;50.240;8.596;2023-03-26T03:39:12;10.60;99.90
3690;DHT22;1861;50.240;8.596;2023-03-26T03:41:40;10.60;99.90
3690;DHT22;1861;50.240;8.596;2023-03-26T03:44:14;10.60;99.90
3690;DHT22;1861;50.240;8.596;2023-03-26T03:46:42;10.70;99.90
3690;DHT22;1861;50.240;8.596;2023-03-26T03:49:11;10.70;99.90
3690;DHT22;1861;50.240;8.596;2023-03-26T03:51:39;10.70;99.90
3690;DHT22;1861;50.240;8.596;2023-03-26T03:54:17;10.60;99.90
3690;DHT22;1861;50.240;8.596;2023-03-26T03:56:45;10.70;99.90
3690;DHT22;1861;50.240;8.596;2023-03-26T03:59:16;10.70;99.90
3690;DHT22;1861;50.240;8.596;2023-03-26T04:01:44;10.70;99.90
3690;DHT22;1861;50.240;8.596;2023-03-26T04:04:23;10.70;99.90
3690;DHT22;1861;50.240;8.596;2023-03-26T04:06:58;10.70;99.90
3690;DHT22;1861;50.240;8.596;2023-03-26T04:09:35;10.70;99.90
3690;DHT22;1861;50.240;8.596;2023-03-26T04:12:11;10.60;99.90
3690;DHT22;1861;50.240;8.596;2023-03-26T04:14:46;10.60;99.90
3690;DHT22;1861;50.240;8.596;2023-03-26T04:17:17;10.60;99.90
3690;DHT22;1861;50.240;8.596;2023-03-26T04:19:47;10.60;99.90
3690;DHT22;1861;50.240;8.596;2023-03-26T04:22:17;10.60;99.90
3690;DHT22;1861;50.240;8.596;2023-03-26T04:24:52;10.60;99.90
3690;DHT22;1861;50.240;8.596;2023-03-26T04:27:29;10.60;99.90
3690;DHT22;1861;50.240;8.596;2023-03-26T04:30:17;10.60;99.90
3690;DHT22;1861;50.240;8.596;2023-03-26T04:33:09;10.60;99.90
3690;DHT22;1861;50.240;8.596;2023-03-26T04:35:42;10.60;99.90
3690;DHT22;1861;50.240;8.596;2023-03-26T04:38:15;10.50;99.90
3690;DHT22;1861;50.240;8.596;2023-03-26T04:40:46;10.60;99.90
3690;DHT22;1861;50.240;8.596;2023-03-26T04:43:29;10.60;99.90
3690;DHT22;1861;50.240;8.596;2023-03-26T04:46:16;10.60;99.90
3690;DHT22;1861;50.240;8.596;2023-03-26T04:48:53;10.50;99.90
3690;DHT22;1861;50.240;8.596;2023-03-26T04:51:25;10.60;99.90
3690;DHT22;1861;50.240;8.596;2023-03-26T04:53:57;10.60;99.90
3690;DHT22;1861;50.240;8.596;2023-03-26T04:56:40;10.60;99.90
3690;DHT22;1861;50.240;8.596;2023-03-26T04:59:26;10.60;99.90
3690;DHT22;1861;50.240;8.596;2023-03-26T05:01:58;10.50;99.90
3690;DHT22;1861;50.240;8.596;2023-03-26T05:04:31;10.50;99.90
3690;DHT22;1861;50.240;8.596;2023-03-26T05:07:00;10.50;99.90
3690;DHT22;1861;50.240;8.596;2023-03-26T05:09:38;10.40;99.90
3690;DHT22;1861;50.240;8.596;2023-03-26T05:12:14;10.50;99.90
3690;DHT22;1861;50.240;8.596;2023-03-26T05:14:58;10.40;99.90
3690;DHT22;1861;50.240;8.596;2023-03-26T05:17:44;10.40;99.90
3690;DHT22;1861;50.240;8.596;2023-03-26T05:20:24;10.30;99.90
3690;DHT22;1861;50.240;8.596;2023-03-26T05:22:52;10.30;99.90
3690;DHT22;1861;50.240;8.596;2023-03-26T05:25:25;10.30;99.90
3690;DHT22;1861;50.240;8.596;2023-03-26T05:27:54;10.30;99.90
3690;DHT22;1861;50.240;8.596;2023-03-26T05:30:26;10.20;99.90
3690;DHT22;1861;50.240;8.596;2023-03-26T05:33:00;10.40;99.90
3690;DHT22;1861;50.240;8.596;2023-03-26T05:35:39;10.30;99.90
3690;DHT22;1861;50.240;8.596;2023-03-26T05:38:08;10.30;99.90
3690;DHT22;1861;50.240;8.596;2023-03-26T05:40:36;10.40;99.90
3690;DHT22;1861;50.240;8.596;2023-03-26T05:43:06;10.40;99.90
3690;DHT22;1861;50.240;8.596;2023-03-26T05:45:46;10.50;99.90
3690;DHT22;1861;50.240;8.596;2023-03-26T05:48:34;10.50;99.90
3690;DHT22;1861;50.240;8.596;2023-03-26T05:51:04;10.40;99.90
3690;DHT22;1861;50.240;8.596;2023-03-26T05:53:34;10.50;99.90
3690;DHT22;1861;50.240;8.596;2023-03-26T05:59:11;10.50;99.90
3690;DHT22;1861;50.240;8.596;2023-03-26T06:01:57;10.60;99.90
3690;DHT22;1861;50.240;8.596;2023-03-26T06:04:50;10.50;99.90
3690;DHT22;1861;50.240;8.596;2023-03-26T06:07:35;10.40;99.90
3690;DHT22;1861;50.240;8.596;2023-03-26T06:10:09;10.40;99.90
3690;DHT22;1861;50.240;8.596;2023-03-26T06:12:44;10.40;99.90
3690;DHT22;1861;50.240;8.596;2023-03-26T06:15:12;10.40;99.90
3690;DHT22;1861;50.240;8.596;2023-03-26T06:17:45;10.40;99.90
3690;DHT22;1861;50.240;8.596;2023-03-26T06:20:32;10.40;99.90
3690;DHT22;1861;50.240;8.596;2023-03-26T06:23:07;10.40;99.90
3690;DHT22;1861;50.240;8.596;2023-03-26T06:26:01;10.40;99.90
3690;DHT22;1861;50.240;8.596;2023-03-26T06:28:43;10.40;99.90
3690;DHT22;1861;50.240;8.596;2023-03-26T06:31:32;10.40;99.90
3690;DHT22;1861;50.240;8.596;2023-03-26T06:34:13;10.40;99.90
3690;DHT22;1861;50.240;8.596;2023-03-26T06:36:42;10.40;99.90
3690;DHT22;1861;50.240;8.596;2023-03-26T06:39:11;10.40;99.90
3690;DHT22;1861;50.240;8.596;2023-03-26T06:41:47;10.40;99.90
3690;DHT22;1861;50.240;8.596;2023-03-26T06:44:38;10.40;99.90
3690;DHT22;1861;50.240;8.596;2023-03-26T06:47:24;10.40;99.90
3690;DHT22;1861;50.240;8.596;2023-03-26T06:50:11;10.50;99.90
3690;DHT22;1861;50.240;8.596;2023-03-26T06:53:00;10.50;99.90
3690;DHT22;1861;50.240;8.596;2023-03-26T06:55:44;10.50;99.90
3690;DHT22;1861;50.240;8.596;2023-03-26T06:58:27;10.50;99.90
3690;DHT22;1861;50.240;8.596;2023-03-26T07:01:15;10.60;99.90
3690;DHT22;1861;50.240;8.596;2023-03-26T07:04:02;10.60;99.90
3690;DHT22;1861;50.240;8.596;2023-03-26T07:06:48;10.60;99.90
3690;DHT22;1861;50.240;8.596;2023-03-26T07:09:37;10.60;99.90
3690;DHT22;1861;50.240;8.596;2023-03-26T07:12:37;10.70;99.90
3690;DHT22;1861;50.240;8.596;2023-03-26T07:15:20;10.60;99.90
3690;DHT22;1861;50.240;8.596;2023-03-26T07:18:07;10.50;99.90
3690;DHT22;1861;50.240;8.596;2023-03-26T07:20:37;10.50;99.90
3690;DHT22;1861;50.240;8.596;2023-03-26T07:23:08;10.60;99.90
3690;DHT22;1861;50.240;8.596;2023-03-26T07:26:12;10.60;99.90
3690;DHT22;1861;50.240;8.596;2023-03-26T07:28:59;10.60;99.90
3690;DHT22;1861;50.240;8.596;2023-03-26T07:31:53;10.60;99.90
3690;DHT22;1861;50.240;8.596;2023-03-26T07:34:50;10.60;99.90
3690;DHT22;1861;50.240;8.596;2023-03-26T07:37:34;10.60;99.90
3690;DHT22;1861;50.240;8.596;2023-03-26T07:40:40;10.60;99.90
3690;DHT22;1861;50.240;8.596;2023-03-26T07:43:49;10.50;99.90
3690;DHT22;1861;50.240;8.596;2023-03-26T07:46:47;10.50;99.90
3690;DHT22;1861;50.240;8.596;2023-03-26T07:49:42;10.60;99.90
3690;DHT22;1861;50.240;8.596;2023-03-26T07:52:23;10.60;99.90
3690;DHT22;1861;50.240;8.596;2023-03-26T07:55:02;10.60;99.90
3690;DHT22;1861;50.240;8.596;2023-03-26T07:58:10;10.60;99.90
3690;DHT22;1861;50.240;8.596;2023-03-26T08:01:05;10.60;99.90
3690;DHT22;1861;50.240;8.596;2023-03-26T08:07:37;10.70;99.90
3690;DHT22;1861;50.240;8.596;2023-03-26T08:10:22;10.70;99.90
3690;DHT22;1861;50.240;8.596;2023-03-26T08:13:04;10.70;99.90
3690;DHT22;1861;50.240;8.596;2023-03-26T08:15:40;10.70;99.90
3690;DHT22;1861;50.240;8.596;2023-03-26T08:18:20;10.70;99.90
3690;DHT22;1861;50.240;8.596;2023-03-26T08:21:09;10.70;99.90
3690;DHT22;1861;50.240;8.596;2023-03-26T08:23:57;10.60;99.90
3690;DHT22;1861;50.240;8.596;2023-03-26T08:26:33;10.70;99.90
3690;DHT22;1861;50.240;8.596;2023-03-26T08:29:13;10.70;99.90
3690;DHT22;1861;50.240;8.596;2023-03-26T08:31:47;10.60;99.90
3690;DHT22;1861;50.240;8.596;2023-03-26T08:34:17;10.70;99.90
3690;DHT22;1861;50.240;8.596;2023-03-26T08:36:45;10.70;99.90
3690;DHT22;1861;50.240;8.596;2023-03-26T08:39:13;10.70;99.90
3690;DHT22;1861;50.240;8.596;2023-03-26T08:42:07;10.70;99.90
3690;DHT22;1861;50.240;8.596;2023-03-26T08:45:10;10.70;99.90
3690;DHT22;1861;50.240;8.596;2023-03-26T08:54:11;10.70;99.90
3690;DHT22;1861;50.240;8.596;2023-03-26T08:56:50;10.70;99.90
3690;DHT22;1861;50.240;8.596;2023-03-26T08:59:53;10.70;99.90
3690;DHT22;1861;50.240;8.596;2023-03-26T09:02:55;10.70;99.90
3690;DHT22;1861;50.240;8.596;2023-03-26T09:05:54;10.70;99.90
3690;DHT22;1861;50.240;8.596;2023-03-26T09:08:58;10.70;99.90
3690;DHT22;1861;50.240;8.596;2023-03-26T09:12:00;10.70;99.90
3690;DHT22;1861;50.240;8.596;2023-03-26T09:14:52;10.70;99.90
3690;DHT22;1861;50.240;8.596;2023-03-26T09:17:47;10.80;99.90
3690;DHT22;1861;50.240;8.596;2023-03-26T09:20:53;10.80;99.90
3690;DHT22;1861;50.240;8.596;2023-03-26T09:24:09;10.80;99.90
3690;DHT22;1861;50.240;8.596;2023-03-26T09:26:45;10.80;99.90
3690;DHT22;1861;50.240;8.596;2023-03-26T09:29:53;10.80;99.90
3690;DHT22;1861;50.240;8.596;2023-03-26T09:35:50;10.90;99.90
3690;DHT22;1861;50.240;8.596;2023-03-26T09:38:41;10.90;99.90
3690;DHT22;1861;50.240;8.596;2023-03-26T09:41:20;10.90;99.90
3690;DHT22;1861;50.240;8.596;2023-03-26T09:44:23;10.90;99.90
3690;DHT22;1861;50.240;8.596;2023-03-26T09:47:26;10.90;99.90
3690;DHT22;1861;50.240;8.596;2023-03-26T09:50:14;10.90;99.90
3690;DHT22;1861;50.240;8.596;2023-03-26T09:52:57;10.80;99.90
3690;DHT22;1861;50.240;8.596;2023-03-26T09:55:43;10.80;99.90
3690;DHT22;1861;50.240;8.596;2023-03-26T09:58:30;10.70;99.90
3690;DHT22;1861;50.240;8.596;2023-03-26T10:01:06;10.70;99.90
3690;DHT22;1861;50.240;8.596;2023-03-26T10:04:00;10.70;99.90
3690;DHT22;1861;50.240;8.596;2023-03-26T10:06:43;10.70;99.90
3690;DHT22;1861;50.240;8.596;2023-03-26T10:09:37;10.70;99.90
3690;DHT22;1861;50.240;8.596;2023-03-26T10:12:21;10.70;99.90
3690;DHT22;1861;50.240;8.596;2023-03-26T10:15:11;10.80;99.90
3690;DHT22;1861;50.240;8.596;2023-03-26T10:17:53;10.80;99.90
3690;DHT22;1861;50.240;8.596;2023-03-26T10:20:43;10.70;99.90
3690;DHT22;1861;50.240;8.596;2023-03-26T10:23:27;10.70;99.90
3690;DHT22;1861;50.240;8.596;2023-03-26T10:26:10;10.70;99.90
3690;DHT22;1861;50.240;8.596;2023-03-26T10:29:06;10.70;99.90
3690;DHT22;1861;50.240;8.596;2023-03-26T10:31:45;10.80;99.90
3690;DHT22;1861;50.240;8.596;2023-03-26T10:34:25;10.80;99.90
3690;DHT22;1861;50.240;8.596;2023-03-26T10:37:04;10.80;99.90
3690;DHT22;1861;50.240;8.596;2023-03-26T10:39:49;10.80;99.90
3690;DHT22;1861;50.240;8.596;2023-03-26T10:42:38;10.80;99.90
3690;DHT22;1861;50.240;8.596;2023-03-26T10:45:17;10.80;99.90
3690;DHT22;1861;50.240;8.596;2023-03-26T10:48:06;10.80;99.90
3690;DHT22;1861;50.240;8.596;2023-03-26T10:50:52;10.80;99.90
3690;DHT22;1861;50.240;8.596;2023-03-26T10:53:30;10.90;99.90
3690;DHT22;1861;50.240;8.596;2023-03-26T10:56:06;10.90;99.90
3690;DHT22;1861;50.240;8.596;2023-03-26T10:58:39;10.90;99.90
3690;DHT22;1861;50.240;8.596;2023-03-26T11:01:22;11.00;99.90
3690;DHT22;1861;50.240;8.596;2023-03-26T11:03:53;10.90;99.90
3690;DHT22;1861;50.240;8.596;2023-03-26T11:06:36;11.00;99.90
3690;DHT22;1861;50.240;8.596;2023-03-26T11:09:18;11.00;99.90
3690;DHT22;1861;50.240;8.596;2023-03-26T11:11:53;11.00;99.90
3690;DHT22;1861;50.240;8.596;2023-03-26T11:14:26;11.00;99.90
3690;DHT22;1861;50.240;8.596;2023-03-26T11:17:08;11.00;99.90
3690;DHT22;1861;50.240;8.596;2023-03-26T11:20:04;11.20;99.90
3690;DHT22;1861;50.240;8.596;2023-03-26T11:22:43;11.40;99.90
3690;DHT22;1861;50.240;8.596;2023-03-26T11:25:35;11.70;99.90
3690;DHT22;1861;50.240;8.596;2023-03-26T11:28:17;11.70;99.90
3690;DHT22;1861;50.240;8.596;2023-03-26T11:30:53;11.70;99.90
3690;DHT22;1861;50.240;8.596;2023-03-26T11:33:28;11.60;99.90
3690;DHT22;1861;50.240;8.596;2023-03-26T11:36:02;11.60;99.90
3690;DHT22;1861;50.240;8.596;2023-03-26T11:38:35;11.60;99.90
3690;DHT22;1861;50.240;8.596;2023-03-26T11:41:11;11.60;99.90
3690;DHT22;1861;50.240;8.596;2023-03-26T11:44:02;11.50;99.90
3690;DHT22;1861;50.240;8.596;2023-03-26T11:46:37;11.50;99.90
3690;DHT22;1861;50.240;8.596;2023-03-26T11:49:08;11.50;99.90
3690;DHT22;1861;50.240;8.596;2023-03-26T11:51:40;11.40;99.90
3690;DHT22;1861;50.240;8.596;2023-03-26T11:54:11;11.40;99.90
3690;DHT22;1861;50.240;8.596;2023-03-26T11:56:43;11.50;99.90
3690;DHT22;1861;50.240;8.596;2023-03-26T11:59:36;11.70;99.90
3690;DHT22;1861;50.240;8.596;2023-03-26T12:02:25;11.70;99.90
3690;DHT22;1861;50.240;8.596;2023-03-26T12:05:19;11.70;99.90
3690;DHT22;1861;50.240;8.596;2023-03-26T12:07:56;11.80;99.90
3690;DHT22;1861;50.240;8.596;2023-03-26T12:10:33;11.70;99.90
3690;DHT22;1861;50.240;8.596;2023-03-26T12:13:25;11.80;99.90
3690;DHT22;1861;50.240;8.596;2023-03-26T12:15:57;12.00;99.90
3690;DHT22;1861;50.240;8.596;2023-03-26T12:18:27;12.20;99.90
3690;DHT22;1861;50.240;8.596;2023-03-26T12:21:04;12.30;99.90
3690;DHT22;1861;50.240;8.596;2023-03-26T12:23:42;12.30;99.90
3690;DHT22;1861;50.240;8.596;2023-03-26T12:26:14;12.40;99.90
3690;DHT22;1861;50.240;8.596;2023-03-26T12:28:43;12.40;99.90
3690;DHT22;1861;50.240;8.596;2023-03-26T12:31:13;12.30;99.90
3690;DHT22;1861;50.240;8.596;2023-03-26T12:33:47;12.20;99.90
3690;DHT22;1861;50.240;8.596;2023-03-26T12:36:21;12.20;99.90
3690;DHT22;1861;50.240;8.596;2023-03-26T12:38:54;12.10;99.90
3690;DHT22;1861;50.240;8.596;2023-03-26T12:41:42;12.10;99.90
3690;DHT22;1861;50.240;8.596;2023-03-26T12:44:34;12.10;99.90
3690;DHT22;1861;50.240;8.596;2023-03-26T12:47:26;12.20;99.90
3690;DHT22;1861;50.240;8.596;2023-03-26T12:50:15;12.30;99.90
3690;DHT22;1861;50.240;8.596;2023-03-26T12:53:07;12.30;99.90
3690;DHT22;1861;50.240;8.596;2023-03-26T12:55:49;12.30;99.90
3690;DHT22;1861;50.240;8.596;2023-03-26T12:58:33;12.20;99.90
3690;DHT22;1861;50.240;8.596;2023-03-26T13:01:08;12.20;99.90
3690;DHT22;1861;50.240;8.596;2023-03-26T13:04:03;12.10;99.90
3690;DHT22;1861;50.240;8.596;2023-03-26T13:06:39;12.00;99.90
3690;DHT22;1861;50.240;8.596;2023-03-26T13:09:41;12.00;99.90
3690;DHT22;1861;50.240;8.596;2023-03-26T13:12:23;12.00;99.90
3690;DHT22;1861;50.240;8.596;2023-03-26T13:15:05;12.10;99.90
3690;DHT22;1861;50.240;8.596;2023-03-26T13:17:40;12.10;99.90
3690;DHT22;1861;50.240;8.596;2023-03-26T13:22:50;12.10;99.90
3690;DHT22;1861;50.240;8.596;2023-03-26T13:25:30;12.20;99.90
3690;DHT22;1861;50.240;8.596;2023-03-26T13:28:13;12.30;99.90
3690;DHT22;1861;50.240;8.596;2023-03-26T13:30:48;12.30;99.90
3690;DHT22;1861;50.240;8.596;2023-03-26T13:33:28;12.40;99.90
3690;DHT22;1861;50.240;8.596;2023-03-26T13:36:04;12.40;99.90
3690;DHT22;1861;50.240;8.596;2023-03-26T13:38:58;12.50;99.90
3690;DHT22;1861;50.240;8.596;2023-03-26T13:41:39;12.60;99.90
3690;DHT22;1861;50.240;8.596;2023-03-26T13:44:18;12.60;99.90
3690;DHT22;1861;50.240;8.596;2023-03-26T13:46:52;12.70;99.90
3690;DHT22;1861;50.240;8.596;2023-03-26T13:49:27;12.70;99.90
3690;DHT22;1861;50.240;8.596;2023-03-26T13:51:58;12.60;99.90
3690;DHT22;1861;50.240;8.596;2023-03-26T13:54:30;12.60;99.90
3690;DHT22;1861;50.240;8.596;2023-03-26T13:57:03;12.60;99.90
3690;DHT22;1861;50.240;8.596;2023-03-26T13:59:37;12.60;99.90
3690;DHT22;1861;50.240;8.596;2023-03-26T14:02:10;12.60;99.90
3690;DHT22;1861;50.240;8.596;2023-03-26T14:04:44;12.60;99.90
3690;DHT22;1861;50.240;8.596;2023-03-26T14:07:17;12.50;99.90
3690;DHT22;1861;50.240;8.596;2023-03-26T14:09:53;12.50;99.90
3690;DHT22;1861;50.240;8.596;2023-03-26T14:12:31;12.50;99.90
3690;DHT22;1861;50.240;8.596;2023-03-26T14:15:08;12.60;99.90
3690;DHT22;1861;50.240;8.596;2023-03-26T14:17:42;12.70;99.90
3690;DHT22;1861;50.240;8.596;2023-03-26T14:23:29;12.80;99.90
3690;DHT22;1861;50.240;8.596;2023-03-26T14:26:08;12.90;99.90
3690;DHT22;1861;50.240;8.596;2023-03-26T14:28:56;12.90;99.90
3690;DHT22;1861;50.240;8.596;2023-03-26T14:31:32;12.90;99.90
3690;DHT22;1861;50.240;8.596;2023-03-26T14:34:25;12.90;99.90
3690;DHT22;1861;50.240;8.596;2023-03-26T14:37:18;12.90;99.90
3690;DHT22;1861;50.240;8.596;2023-03-26T14:40:06;12.90;99.90
3690;DHT22;1861;50.240;8.596;2023-03-26T14:42:50;12.90;99.90
3690;DHT22;1861;50.240;8.596;2023-03-26T14:45:37;12.90;99.90
3690;DHT22;1861;50.240;8.596;2023-03-26T14:48:40;12.90;99.90
3690;DHT22;1861;50.240;8.596;2023-03-26T14:51:25;12.90;99.90
3690;DHT22;1861;50.240;8.596;2023-03-26T14:53:59;12.90;99.90
3690;DHT22;1861;50.240;8.596;2023-03-26T14:56:41;12.90;99.90
3690;DHT22;1861;50.240;8.596;2023-03-26T15:05:58;12.80;99.90
3690;DHT22;1861;50.240;8.596;2023-03-26T15:09:07;12.80;99.90
3690;DHT22;1861;50.240;8.596;2023-03-26T15:11:47;12.80;99.90
3690;DHT22;1861;50.240;8.596;2023-03-26T15:15:04;12.70;99.90
3690;DHT22;1861;50.240;8.596;2023-03-26T15:18:15;12.70;99.90
3690;DHT22;1861;50.240;8.596;2023-03-26T15:21:24;12.70;99.90
3690;DHT22;1861;50.240;8.596;2023-03-26T15:24:24;12.60;99.90
3690;DHT22;1861;50.240;8.596;2023-03-26T15:27:36;12.50;99.90
3690;DHT22;1861;50.240;8.596;2023-03-26T15:33:28;12.50;99.90
3690;DHT22;1861;50.240;8.596;2023-03-26T15:36:23;12.40;99.90
3690;DHT22;1861;50.240;8.596;2023-03-26T15:39:18;12.40;99.90
3690;DHT22;1861;50.240;8.596;2023-03-26T15:42:01;12.10;99.90
3690;DHT22;1861;50.240;8.596;2023-03-26T15:44:47;11.30;99.90
3690;DHT22;1861;50.240;8.596;2023-03-26T15:47:48;11.30;99.90
3690;DHT22;1861;50.240;8.596;2023-03-26T15:50:29;11.20;99.90
3690;DHT22;1861;50.240;8.596;2023-03-26T15:53:07;11.20;99.90
3690;DHT22;1861;50.240;8.596;2023-03-26T15:55:50;11.20;99.90
3690;DHT22;1861;50.240;8.596;2023-03-26T15:58:24;11.10;99.90
3690;DHT22;1861;50.240;8.596;2023-03-26T16:01:02;10.90;99.90
3690;DHT22;1861;50.240;8.596;2023-03-26T16:03:40;10.90;99.90
3690;DHT22;1861;50.240;8.596;2023-03-26T16:06:38;10.90;99.90
3690;DHT22;1861;50.240;8.596;2023-03-26T16:09:43;10.90;99.90
3690;DHT22;1861;50.240;8.596;2023-03-26T16:12:30;10.80;99.90
3690;DHT22;1861;50.240;8.596;2023-03-26T16:15:18;10.80;99.90
3690;DHT22;1861;50.240;8.596;2023-03-26T16:18:24;10.90;99.90
3690;DHT22;1861;50.240;8.596;2023-03-26T16:20:54;10.90;99.90
3690;DHT22;1861;50.240;8.596;2023-03-26T16:23:34;10.90;99.90
3690;DHT22;1861;50.240;8.596;2023-03-26T16:26:22;10.80;99.90
3690;DHT22;1861;50.240;8.596;2023-03-26T16:29:18;10.90;99.90
3690;DHT22;1861;50.240;8.596;2023-03-26T16:32:09;10.90;99.90
3690;DHT22;1861;50.240;8.596;2023-03-26T16:34:46;10.90;99.90
3690;DHT22;1861;50.240;8.596;2023-03-26T16:37:35;10.90;99.90
3690;DHT22;1861;50.240;8.596;2023-03-26T16:40:26;10.90;99.90
3690;DHT22;1861;50.240;8.596;2023-03-26T16:43:01;10.90;99.90
3690;DHT22;1861;50.240;8.596;2023-03-26T16:45:34;10.90;99.90
3690;DHT22;1861;50.240;8.596;2023-03-26T16:48:12;10.90;99.90
3690;DHT22;1861;50.240;8.596;2023-03-26T16:50:47;10.90;99.90
3690;DHT22;1861;50.240;8.596;2023-03-26T16:53:34;10.90;99.90
3690;DHT22;1861;50.240;8.596;2023-03-26T16:56:15;10.90;99.90
3690;DHT22;1861;50.240;8.596;2023-03-26T16:58:52;10.90;99.90
3690;DHT22;1861;50.240;8.596;2023-03-26T17:01:31;11.00;99.90
3690;DHT22;1861;50.240;8.596;2023-03-26T17:04:04;11.00;99.90
3690;DHT22;1861;50.240;8.596;2023-03-26T17:06:59;11.00;99.90
3690;DHT22;1861;50.240;8.596;2023-03-26T17:09:39;10.90;99.90
3690;DHT22;1861;50.240;8.596;2023-03-26T17:12:16;10.90;99.90
3690;DHT22;1861;50.240;8.596;2023-03-26T17:14:55;11.00;99.90
3690;DHT22;1861;50.240;8.596;2023-03-26T17:17:50;11.00;99.90
3690;DHT22;1861;50.240;8.596;2023-03-26T17:20:28;10.90;99.90
3690;DHT22;1861;50.240;8.596;2023-03-26T17:23:09;10.90;99.90
3690;DHT22;1861;50.240;8.596;2023-03-26T17:25:50;10.80;99.90
3690;DHT22;1861;50.240;8.596;2023-03-26T17:28:37;10.80;99.90
3690;DHT22;1861;50.240;8.596;2023-03-26T17:31:17;10.90;99.90
3690;DHT22;1861;50.240;8.596;2023-03-26T17:33:48;10.90;99.90
3690;DHT22;1861;50.240;8.596;2023-03-26T17:36:39;10.90;99.90
3690;DHT22;1861;50.240;8.596;2023-03-26T17:39:21;10.90;99.90
3690;DHT22;1861;50.240;8.596;2023-03-26T17:42:24;10.90;99.90
3690;DHT22;1861;50.240;8.596;2023-03-26T17:44:53;10.90;99.90
3690;DHT22;1861;50.240;8.596;2023-03-26T17:47:29;10.90;99.90
3690;DHT22;1861;50.240;8.596;2023-03-26T17:50:04;10.80;99.90
3690;DHT22;1861;50.240;8.596;2023-03-26T17:52:45;10.80;99.90
3690;DHT22;1861;50.240;8.596;2023-03-26T17:55:17;10.70;99.90
3690;DHT22;1861;50.240;8.596;2023-03-26T17:57:49;10.70;99.90
3690;DHT22;1861;50.240;8.596;2023-03-26T18:00:21;10.70;99.90